createdAt,value
2018-05-26T00:01:22.282Z,9.10
2018-05-26T00:03:50.048Z,9.10
2018-05-26T00:06:18.647Z,9.20
2018-05-26T00:08:46.503Z,10.90
2018-05-26T00:11:16.101Z,9.40
2018-05-26T00:13:43.871Z,9.38
2018-05-26T00:16:12.138Z,10.07
2018-05-26T00:18:40.653Z,10.63
2018-05-26T00:21:09.817Z,10.30
2018-05-26T00:23:37.994Z,10.73
2018-05-26T00:26:06.267Z,10.55
2018-05-26T00:28:34.033Z,10.80
2018-05-26T00:31:01.800Z,10.52
2018-05-26T00:33:29.859Z,10.45
2018-05-26T00:35:58.444Z,10.43
2018-05-26T00:38:26.206Z,10.70
2018-05-26T00:40:54.074Z,10.80
2018-05-26T00:43:22.665Z,10.52
2018-05-26T00:45:50.418Z,10.35
2018-05-26T00:48:19.009Z,10.88
2018-05-26T00:50:46.868Z,10.13
2018-05-26T00:53:14.647Z,10.70
2018-05-26T00:55:43.932Z,10.77
2018-05-26T00:58:12.201Z,10.52
2018-05-26T01:00:39.969Z,11.18
2018-05-26T01:03:09.081Z,10.57
2018-05-26T01:05:36.724Z,11.45
2018-05-26T01:08:06.026Z,10.60
2018-05-26T01:10:33.893Z,11.10
2018-05-26T01:13:02.174Z,10.75
2018-05-26T01:15:30.041Z,10.88
2018-05-26T01:17:58.613Z,11.20
2018-05-26T01:20:26.484Z,11.07
2018-05-26T01:22:54.244Z,10.63
2018-05-26T01:25:22.927Z,10.98
2018-05-26T01:27:50.689Z,11.57
2018-05-26T01:30:18.558Z,11.60
2018-05-26T01:32:46.317Z,12.00
2018-05-26T01:35:14.080Z,12.45
2018-05-26T01:37:41.838Z,11.07
2018-05-26T01:40:10.018Z,11.23
2018-05-26T01:42:38.193Z,12.35
2018-05-26T01:45:05.953Z,12.60
2018-05-26T01:47:34.228Z,12.20
2018-05-26T01:50:02.100Z,12.65
2018-05-26T01:52:29.864Z,11.57
2018-05-26T01:54:58.041Z,12.00
2018-05-26T01:57:25.903Z,12.07
2018-05-26T01:59:54.181Z,11.48
2018-05-26T02:02:21.943Z,12.18
2018-05-26T02:04:50.212Z,11.82
2018-05-26T02:07:17.973Z,11.68
2018-05-26T02:09:46.249Z,11.23
2018-05-26T02:12:13.920Z,12.45
2018-05-26T02:14:42.194Z,12.20
2018-05-26T02:17:10.357Z,11.80
2018-05-26T02:19:38.124Z,11.25
2018-05-26T02:22:07.330Z,11.90
2018-05-26T02:24:36.638Z,10.88
2018-05-26T02:27:05.738Z,11.65
2018-05-26T02:29:34.387Z,11.80
2018-05-26T02:32:02.156Z,11.63
2018-05-26T02:34:30.641Z,11.55
2018-05-26T02:36:58.308Z,12.35
2018-05-26T02:39:26.067Z,11.32
2018-05-26T02:41:53.829Z,11.65
2018-05-26T02:44:22.107Z,12.20
2018-05-26T02:46:50.290Z,11.05
2018-05-26T02:49:18.043Z,12.93
2018-05-26T02:51:45.802Z,12.18
2018-05-26T02:54:13.871Z,12.65
2018-05-26T02:56:41.940Z,12.27
2018-05-26T02:59:10.223Z,12.45
2018-05-26T03:01:38.082Z,12.02
2018-05-26T03:04:06.258Z,12.25
2018-05-26T03:06:40.063Z,11.88
2018-05-26T03:09:13.678Z,12.07
2018-05-26T03:11:47.984Z,12.48
2018-05-26T03:14:21.996Z,14.48
2018-05-26T03:16:51.908Z,14.77
2018-05-26T03:19:20.070Z,13.82
2018-05-26T03:21:48.140Z,13.20
2018-05-26T03:24:16.013Z,12.27
2018-05-26T03:26:44.178Z,12.35
2018-05-26T03:29:11.950Z,12.82
2018-05-26T03:31:40.124Z,12.95
2018-05-26T03:34:08.282Z,12.73
2018-05-26T03:36:35.959Z,12.93
2018-05-26T03:39:04.041Z,13.95
2018-05-26T03:41:32.201Z,14.63
2018-05-26T03:43:59.968Z,14.00
2018-05-26T03:46:28.240Z,13.98
2018-05-26T03:48:55.886Z,15.38
2018-05-26T03:51:23.986Z,14.95
2018-05-26T03:53:52.252Z,13.82
2018-05-26T03:56:31.885Z,14.38
2018-05-26T03:59:11.834Z,15.02
2018-05-26T04:01:40.301Z,14.27
2018-05-26T04:04:07.966Z,14.52
2018-05-26T04:06:36.153Z,15.13
2018-05-26T04:09:03.897Z,14.60
2018-05-26T04:11:32.080Z,15.70
2018-05-26T04:14:00.261Z,16.50
2018-05-26T04:16:28.231Z,14.93
2018-05-26T04:18:55.873Z,15.23
2018-05-26T04:21:24.066Z,15.27
2018-05-26T04:23:52.125Z,17.12
2018-05-26T04:26:21.231Z,17.35
2018-05-26T04:28:49.189Z,17.90
2018-05-26T04:31:16.845Z,18.20
2018-05-26T04:33:44.434Z,17.65
2018-05-26T04:36:12.279Z,17.80
2018-05-26T04:38:40.041Z,16.30
2018-05-26T04:41:08.220Z,16.17
2018-05-26T04:43:37.527Z,16.85
2018-05-26T04:46:06.763Z,16.45
2018-05-26T04:48:34.680Z,15.82
2018-05-26T04:51:02.544Z,14.77
2018-05-26T04:53:30.307Z,14.82
2018-05-26T04:55:58.362Z,14.07
2018-05-26T04:58:26.035Z,13.50
2018-05-26T05:00:54.202Z,14.87
2018-05-26T05:03:21.983Z,13.10
2018-05-26T05:05:50.146Z,13.18
2018-05-26T05:08:18.203Z,13.73
2018-05-26T05:10:46.084Z,12.48
2018-05-26T05:13:14.254Z,12.35
2018-05-26T05:15:42.117Z,12.27
2018-05-26T05:18:10.389Z,11.88
2018-05-26T05:20:38.056Z,13.35
2018-05-26T05:23:06.252Z,13.50
2018-05-26T05:25:33.882Z,12.55
2018-05-26T05:28:01.953Z,13.30
2018-05-26T05:30:30.137Z,12.73
2018-05-26T05:32:58.707Z,12.48
2018-05-26T05:35:26.373Z,12.75
2018-05-26T05:37:54.036Z,12.75
2018-05-26T05:40:22.100Z,11.68
2018-05-26T05:42:50.282Z,12.02
2018-05-26T05:45:18.044Z,12.23
2018-05-26T05:47:46.115Z,11.85
2018-05-26T05:50:15.222Z,11.35
2018-05-26T05:52:42.870Z,11.20
2018-05-26T05:55:10.736Z,10.68
2018-05-26T05:57:38.398Z,10.63
2018-05-26T06:00:07.398Z,11.10
2018-05-26T06:02:36.504Z,11.52
2018-05-26T06:05:04.121Z,11.50
2018-05-26T06:07:32.424Z,11.40
2018-05-26T06:10:00.286Z,12.77
2018-05-26T06:12:27.941Z,14.68
2018-05-26T06:14:56.482Z,16.02
2018-05-26T06:17:24.178Z,17.67
2018-05-26T06:19:51.945Z,17.80
2018-05-26T06:22:20.127Z,15.52
2018-05-26T06:24:48.310Z,18.85
2018-05-26T06:27:16.082Z,16.48
2018-05-26T06:29:44.349Z,12.70
2018-05-26T06:32:11.991Z,12.63
2018-05-26T06:34:40.581Z,13.05
2018-05-26T06:37:08.245Z,11.57
2018-05-26T06:39:36.008Z,11.23
2018-05-26T06:42:04.167Z,9.60
2018-05-26T06:44:32.054Z,9.98
2018-05-26T06:47:00.230Z,9.88
2018-05-26T06:49:27.984Z,10.23
2018-05-26T06:51:56.162Z,8.30
2018-05-26T06:54:24.338Z,7.68
2018-05-26T06:56:51.977Z,8.00
2018-05-26T06:59:20.269Z,7.87
2018-05-26T07:01:48.437Z,10.85
2018-05-26T07:04:16.197Z,8.95
2018-05-26T07:06:43.961Z,8.65
2018-05-26T07:09:12.145Z,8.38
2018-05-26T07:11:40.202Z,8.57
2018-05-26T07:14:08.073Z,8.60
2018-05-26T07:16:36.125Z,8.25
2018-05-26T07:19:05.160Z,7.47
2018-05-26T07:21:34.136Z,7.62
2018-05-26T07:24:02.326Z,8.15
2018-05-26T07:26:30.175Z,8.05
2018-05-26T07:28:58.246Z,8.75
2018-05-26T07:31:26.512Z,7.68
2018-05-26T07:33:54.382Z,8.25
2018-05-26T07:36:22.146Z,7.80
2018-05-26T07:38:50.318Z,7.03
2018-05-26T07:41:17.974Z,7.22
2018-05-26T07:43:45.995Z,7.45
2018-05-26T07:46:14.375Z,7.57
2018-05-26T07:48:42.906Z,6.78
2018-05-26T07:51:10.770Z,7.28
2018-05-26T07:53:38.477Z,6.85
2018-05-26T07:56:06.897Z,7.90
2018-05-26T07:58:35.392Z,6.72
2018-05-26T08:01:04.177Z,6.50
2018-05-26T08:03:32.261Z,6.53
2018-05-26T08:06:00.029Z,6.37
2018-05-26T08:08:28.189Z,7.55
2018-05-26T08:10:56.377Z,6.30
2018-05-26T08:13:24.019Z,6.28
2018-05-26T08:15:52.182Z,6.50
2018-05-26T08:18:22.490Z,6.32
2018-05-26T08:20:50.273Z,5.50
2018-05-26T08:23:18.040Z,5.80
2018-05-26T08:25:46.209Z,6.10
2018-05-26T08:28:13.871Z,6.30
2018-05-26T08:30:42.451Z,6.22
2018-05-26T08:33:10.120Z,5.80
2018-05-26T08:35:38.178Z,5.20
2018-05-26T08:38:06.970Z,5.78
2018-05-26T08:40:34.601Z,8.35
2018-05-26T08:43:02.493Z,5.12
2018-05-26T08:45:30.272Z,5.20
2018-05-26T08:47:58.039Z,5.30
2018-05-26T08:50:26.205Z,5.75
2018-05-26T08:52:53.853Z,5.45
2018-05-26T08:55:22.364Z,5.62
2018-05-26T08:57:50.826Z,6.03
2018-05-26T09:00:18.488Z,5.43
2018-05-26T09:02:47.501Z,5.32
2018-05-26T09:05:16.995Z,5.25
2018-05-26T09:07:45.487Z,5.55
2018-05-26T09:10:15.586Z,5.55
2018-05-26T09:12:44.163Z,5.15
2018-05-26T09:15:12.351Z,5.72
2018-05-26T09:17:39.990Z,5.47
2018-05-26T09:20:08.277Z,5.32
2018-05-26T09:22:35.936Z,4.37
2018-05-26T09:25:04.171Z,3.80
2018-05-26T09:27:32.408Z,4.50
2018-05-26T09:30:00.249Z,3.80
2018-05-26T09:32:27.912Z,4.15
2018-05-26T09:34:56.085Z,5.70
2018-05-26T09:37:24.167Z,4.55
2018-05-26T09:39:52.331Z,3.42
2018-05-26T09:42:20.217Z,4.82
2018-05-26T09:44:48.369Z,4.82
2018-05-26T09:47:16.863Z,5.87
2018-05-26T09:49:44.856Z,4.75
2018-05-26T09:52:14.117Z,6.50
2018-05-26T09:54:42.174Z,4.50
2018-05-26T09:57:10.776Z,4.00
2018-05-26T09:59:38.532Z,5.60
2018-05-26T10:02:09.981Z,5.00
2018-05-26T10:04:38.051Z,4.35
2018-05-26T10:07:06.114Z,5.28
2018-05-26T10:09:34.309Z,4.80
2018-05-26T10:12:01.944Z,5.32
2018-05-26T10:14:30.154Z,3.80
2018-05-26T10:16:58.312Z,4.22
2018-05-26T10:19:26.548Z,6.28
2018-05-26T10:21:54.365Z,6.12
2018-05-26T10:24:22.125Z,4.93
2018-05-26T10:26:52.229Z,4.57
2018-05-26T10:29:20.025Z,4.70
2018-05-26T10:31:48.271Z,4.50
2018-05-26T10:34:16.341Z,5.28
2018-05-26T10:36:44.199Z,4.80
2018-05-26T10:39:12.379Z,4.47
2018-05-26T10:41:40.860Z,4.62
2018-05-26T10:44:08.502Z,3.90
2018-05-26T10:46:36.281Z,3.10
2018-05-26T10:49:04.041Z,3.75
2018-05-26T10:51:32.324Z,4.55
2018-05-26T10:54:00.187Z,4.03
2018-05-26T10:56:28.254Z,4.62
2018-05-26T10:58:56.030Z,3.87
2018-05-26T11:01:24.537Z,4.37
2018-05-26T11:03:53.904Z,4.20
2018-05-26T11:06:21.963Z,4.80
2018-05-26T11:08:50.178Z,4.55
2018-05-26T11:11:18.735Z,5.35
2018-05-26T11:13:46.905Z,4.32
2018-05-26T11:16:14.899Z,4.18
2018-05-26T11:18:43.961Z,3.80
2018-05-26T11:21:12.240Z,3.62
2018-05-26T11:23:40.221Z,4.03
2018-05-26T11:26:08.544Z,3.95
2018-05-26T11:28:37.798Z,3.97
2018-05-26T11:31:06.422Z,4.28
2018-05-26T11:33:34.944Z,3.97
2018-05-26T11:36:02.615Z,3.87
2018-05-26T11:38:30.797Z,3.87
2018-05-26T11:40:58.552Z,4.05
2018-05-26T11:43:26.326Z,3.97
2018-05-26T11:45:54.794Z,3.45
2018-05-26T11:48:22.551Z,3.55
2018-05-26T11:50:50.257Z,3.45
2018-05-26T11:53:18.538Z,3.90
2018-05-26T11:55:46.798Z,3.80
2018-05-26T11:58:16.064Z,4.12
2018-05-26T12:00:44.234Z,3.70
2018-05-26T12:03:12.808Z,3.55
2018-05-26T12:05:40.485Z,3.75
2018-05-26T12:08:08.240Z,3.87
2018-05-26T12:10:36.002Z,4.18
2018-05-26T12:13:04.073Z,3.80
2018-05-26T12:15:32.165Z,4.03
2018-05-26T12:18:00.342Z,3.72
2018-05-26T12:20:28.187Z,3.72
2018-05-26T12:22:56.358Z,3.87
2018-05-26T12:25:24.260Z,3.87
2018-05-26T12:27:52.289Z,4.03
2018-05-26T12:30:20.360Z,3.95
2018-05-26T12:32:48.037Z,4.45
2018-05-26T12:35:16.200Z,4.03
2018-05-26T12:37:44.381Z,4.97
2018-05-26T12:40:12.153Z,3.65
2018-05-26T12:42:40.203Z,3.62
2018-05-26T12:45:08.789Z,3.53
2018-05-26T12:47:37.982Z,3.50
2018-05-26T12:50:06.467Z,3.70
2018-05-26T12:52:35.587Z,3.45
2018-05-26T12:55:04.254Z,3.53
2018-05-26T12:57:33.129Z,3.50
2018-05-26T13:00:00.820Z,3.90
2018-05-26T13:02:28.688Z,3.92
2018-05-26T13:04:56.848Z,3.97
2018-05-26T13:07:24.514Z,3.87
2018-05-26T13:09:52.367Z,4.00
2018-05-26T13:12:20.436Z,5.50
2018-05-26T13:14:48.309Z,3.97
2018-05-26T13:17:16.802Z,4.03
2018-05-26T13:19:44.646Z,4.22
2018-05-26T13:22:13.175Z,3.62
2018-05-26T13:24:41.111Z,3.75
2018-05-26T13:27:08.987Z,3.50
2018-05-26T13:29:37.074Z,3.90
2018-05-26T13:32:06.146Z,3.95
2018-05-26T13:34:34.735Z,3.60
2018-05-26T13:37:02.597Z,3.78
2018-05-26T13:39:30.452Z,3.65
2018-05-26T13:41:58.209Z,3.87
2018-05-26T13:44:26.280Z,4.62
2018-05-26T13:46:54.168Z,4.05
2018-05-26T13:49:22.427Z,3.47
2018-05-26T13:51:50.315Z,6.35
2018-05-26T13:54:19.030Z,4.57
2018-05-26T13:56:48.269Z,3.95
2018-05-26T13:59:16.133Z,4.30
2018-05-26T14:01:44.420Z,3.80
2018-05-26T14:04:12.291Z,3.58
2018-05-26T14:06:40.968Z,5.87
2018-05-26T14:09:08.837Z,3.60
2018-05-26T14:11:36.692Z,4.28
2018-05-26T14:14:05.285Z,15.15
2018-05-26T14:16:33.287Z,7.07
2018-05-26T14:19:02.337Z,22.00
2018-05-26T14:21:30.104Z,11.68
2018-05-26T14:23:58.376Z,12.55
2018-05-26T14:26:26.566Z,4.72
2018-05-26T14:28:54.545Z,14.30
2018-05-26T14:31:22.391Z,12.40
2018-05-26T14:33:51.490Z,5.10
2018-05-26T14:36:20.863Z,10.48
2018-05-26T14:38:48.750Z,4.10
2018-05-26T14:41:18.060Z,5.32
2018-05-26T14:43:46.338Z,4.12
2018-05-26T14:46:14.188Z,3.92
2018-05-26T14:48:41.842Z,4.05
2018-05-26T14:51:10.328Z,4.90
2018-05-26T14:53:37.982Z,4.65
2018-05-26T14:56:06.263Z,3.47
2018-05-26T14:58:34.731Z,4.10
2018-05-26T15:01:02.609Z,3.60
2018-05-26T15:03:30.284Z,3.87
2018-05-26T15:05:59.256Z,4.15
2018-05-26T15:08:27.127Z,3.78
2018-05-26T15:10:54.898Z,7.03
2018-05-26T15:13:22.680Z,5.62
2018-05-26T15:15:51.964Z,4.78
2018-05-26T15:18:20.540Z,4.00
2018-05-26T15:20:48.187Z,4.10
2018-05-26T15:23:16.281Z,4.07
2018-05-26T15:25:44.038Z,4.43
2018-05-26T15:28:12.106Z,4.47
2018-05-26T15:30:40.395Z,4.68
2018-05-26T15:33:08.143Z,4.22
2018-05-26T15:35:36.724Z,3.95
2018-05-26T15:38:04.493Z,3.83
2018-05-26T15:40:32.559Z,4.12
2018-05-26T15:43:00.326Z,3.90
2018-05-26T15:45:28.081Z,4.55
2018-05-26T15:47:57.081Z,5.53
2018-05-26T15:50:26.192Z,5.30
2018-05-26T15:52:54.354Z,5.70
2018-05-26T15:55:23.041Z,6.43
2018-05-26T15:57:51.005Z,4.80
2018-05-26T16:00:18.759Z,5.25
2018-05-26T16:02:46.654Z,5.70
2018-05-26T16:05:14.508Z,5.43
2018-05-26T16:07:42.255Z,4.22
2018-05-26T16:10:10.754Z,4.30
2018-05-26T16:12:39.566Z,3.87
2018-05-26T16:15:08.222Z,4.00
2018-05-26T16:17:35.861Z,4.65
2018-05-26T16:20:04.455Z,4.90
2018-05-26T16:22:32.234Z,4.78
2018-05-26T16:25:00.189Z,3.87
2018-05-26T16:27:28.471Z,3.70
2018-05-26T16:29:56.336Z,4.55
2018-05-26T16:32:24.301Z,3.80
2018-05-26T16:34:51.946Z,4.62
2018-05-26T16:37:20.847Z,4.45
2018-05-26T16:39:48.617Z,4.57
2018-05-26T16:42:16.372Z,4.82
2018-05-26T16:44:44.030Z,5.05
2018-05-26T16:47:12.103Z,7.37
2018-05-26T16:49:40.177Z,12.18
2018-05-26T16:52:08.497Z,8.60
2018-05-26T16:54:36.925Z,7.40
2018-05-26T16:57:06.025Z,4.65
2018-05-26T16:59:34.189Z,4.47
2018-05-26T17:02:03.099Z,3.97
2018-05-26T17:04:30.744Z,4.63
2018-05-26T17:06:58.543Z,3.28
2018-05-26T17:09:26.389Z,3.60
2018-05-26T17:11:54.138Z,4.35
2018-05-26T17:14:22.208Z,5.35
2018-05-26T17:16:49.874Z,4.20
2018-05-26T17:19:18.830Z,3.78
2018-05-26T17:21:46.524Z,6.95
2018-05-26T17:24:14.289Z,3.67
2018-05-26T17:26:41.946Z,4.25
2018-05-26T17:29:10.133Z,3.45
2018-05-26T17:31:38.305Z,6.87
2018-05-26T17:34:05.950Z,5.85
2018-05-26T17:36:34.492Z,8.15
2018-05-26T17:39:02.309Z,3.60
2018-05-26T17:41:30.468Z,3.80
2018-05-26T17:43:58.236Z,4.95
2018-05-26T17:46:26.004Z,4.90
2018-05-26T17:48:54.174Z,4.78
2018-05-26T17:51:22.356Z,4.15
2018-05-26T17:53:50.113Z,4.65
2018-05-26T17:56:18.298Z,5.05
2018-05-26T17:58:45.945Z,7.03
2018-05-26T18:01:15.860Z,8.27
2018-05-26T18:03:44.345Z,7.45
2018-05-26T18:06:11.995Z,8.30
2018-05-26T18:08:40.169Z,6.25
2018-05-26T18:11:08.241Z,5.20
2018-05-26T18:13:35.899Z,5.45
2018-05-26T18:16:04.496Z,4.32
2018-05-26T18:18:32.362Z,4.72
2018-05-26T18:21:01.481Z,4.72
2018-05-26T18:23:30.361Z,4.82
2018-05-26T18:25:58.162Z,4.87
2018-05-26T18:28:27.248Z,8.88
2018-05-26T18:30:56.205Z,8.00
2018-05-26T18:33:25.248Z,9.07
2018-05-26T18:35:53.061Z,7.68
2018-05-26T18:38:22.172Z,6.87
2018-05-26T18:40:50.261Z,6.45
2018-05-26T18:43:18.381Z,5.87
2018-05-26T18:45:46.273Z,5.72
2018-05-26T18:48:14.333Z,6.07
2018-05-26T18:50:42.507Z,5.30
2018-05-26T18:53:10.270Z,8.02
2018-05-26T18:55:38.341Z,6.57
2018-05-26T18:58:06.515Z,6.82
2018-05-26T19:00:34.176Z,6.28
2018-05-26T19:03:02.343Z,6.97
2018-05-26T19:05:31.360Z,6.37
2018-05-26T19:08:00.323Z,6.93
2018-05-26T19:10:28.189Z,9.68
2018-05-26T19:12:56.364Z,9.13
2018-05-26T19:15:24.128Z,8.07
2018-05-26T19:17:52.196Z,6.37
2018-05-26T19:20:20.671Z,6.32
2018-05-26T19:22:48.337Z,7.20
2018-05-26T19:25:15.996Z,7.40
2018-05-26T19:27:44.166Z,6.78
2018-05-26T19:30:12.343Z,8.13
2018-05-26T19:32:40.109Z,6.87
2018-05-26T19:35:08.291Z,7.32
2018-05-26T19:37:36.045Z,8.40
2018-05-26T19:40:04.531Z,13.35
2018-05-26T19:42:32.702Z,14.18
2018-05-26T19:45:00.965Z,10.25
2018-05-26T19:47:29.039Z,9.88
2018-05-26T19:49:56.899Z,10.10
2018-05-26T19:52:24.978Z,9.10
2018-05-26T19:54:52.743Z,8.68
2018-05-26T19:57:20.398Z,9.18
2018-05-26T19:59:48.273Z,8.75
2018-05-26T20:02:16.030Z,7.78
2018-05-26T20:04:44.513Z,23.23
2018-05-26T20:07:12.378Z,9.18
2018-05-26T20:09:40.143Z,8.88
2018-05-26T20:12:08.319Z,8.10
2018-05-26T20:14:36.393Z,9.45
2018-05-26T20:17:04.150Z,11.98
2018-05-26T20:19:32.323Z,10.02
2018-05-26T20:22:00.088Z,9.10
2018-05-26T20:24:28.259Z,9.18
2018-05-26T20:26:55.854Z,9.43
2018-05-26T20:29:24.312Z,9.00
2018-05-26T20:31:52.477Z,9.18
2018-05-26T20:34:20.230Z,29.00
2018-05-26T20:36:49.118Z,9.98
2018-05-26T20:39:16.896Z,9.02
2018-05-26T20:41:44.886Z,9.75
2018-05-26T20:44:13.850Z,9.48
2018-05-26T20:46:42.446Z,9.45
2018-05-26T20:49:10.193Z,10.07
2018-05-26T20:51:38.274Z,10.25
2018-05-26T20:54:06.030Z,9.65
2018-05-26T20:56:34.097Z,10.35
2018-05-26T20:59:03.187Z,8.98
2018-05-26T21:01:30.854Z,10.55
2018-05-26T21:03:58.622Z,9.85
2018-05-26T21:06:26.386Z,10.45
2018-05-26T21:08:54.146Z,10.25
2018-05-26T21:11:22.213Z,10.45
2018-05-26T21:13:50.282Z,11.15
2018-05-26T21:16:18.054Z,10.32
2018-05-26T21:18:46.112Z,11.70
2018-05-26T21:21:14.927Z,11.18
2018-05-26T21:23:44.231Z,11.73
2018-05-26T21:26:12.388Z,11.98
2018-05-26T21:28:41.169Z,13.25
2018-05-26T21:31:08.925Z,16.90
2018-05-26T21:33:38.225Z,13.55
2018-05-26T21:36:07.339Z,14.15
2018-05-26T21:38:35.031Z,12.77
2018-05-26T21:41:04.389Z,13.00
2018-05-26T21:43:32.456Z,13.50
2018-05-26T21:46:00.226Z,14.23
2018-05-26T21:48:28.812Z,13.73
2018-05-26T21:50:56.568Z,13.82
2018-05-26T21:53:24.230Z,12.93
2018-05-26T21:55:52.408Z,13.27
2018-05-26T21:58:20.880Z,14.48
2018-05-26T22:00:48.473Z,13.95
2018-05-26T22:03:17.130Z,14.18
2018-05-26T22:05:44.911Z,13.93
2018-05-26T22:08:12.521Z,14.15
2018-05-26T22:10:40.818Z,14.95
2018-05-26T22:13:10.120Z,14.63
2018-05-26T22:15:38.193Z,14.25
2018-05-26T22:18:08.009Z,13.27
2018-05-26T22:20:36.180Z,15.27
2018-05-26T22:23:04.253Z,16.90
2018-05-26T22:25:32.731Z,18.33
2018-05-26T22:28:01.374Z,17.45
2018-05-26T22:30:30.426Z,18.05
2018-05-26T22:32:58.078Z,17.87
2018-05-26T22:35:26.141Z,15.68
2018-05-26T22:37:54.319Z,16.85
2018-05-26T22:40:22.492Z,18.85
2018-05-26T22:42:50.253Z,19.48
2018-05-26T22:45:18.938Z,18.00
2018-05-26T22:47:47.116Z,18.25
2018-05-26T22:50:14.765Z,22.65
2018-05-26T22:52:42.536Z,20.70
2018-05-26T22:55:10.325Z,18.80
2018-05-26T22:57:38.060Z,17.23
2018-05-26T23:00:06.238Z,18.25
2018-05-26T23:02:34.298Z,17.75
2018-05-26T23:05:01.973Z,18.12
2018-05-26T23:07:30.745Z,18.48
2018-05-26T23:09:58.414Z,17.42
2018-05-26T23:12:26.484Z,17.87
2018-05-26T23:14:54.145Z,20.02
2018-05-26T23:17:22.318Z,22.00
2018-05-26T23:19:50.389Z,19.98
2018-05-26T23:22:18.149Z,19.08
2018-05-26T23:24:46.219Z,18.37
2018-05-26T23:27:14.962Z,18.45
2018-05-26T23:29:44.217Z,19.45
2018-05-26T23:32:12.578Z,18.25
2018-05-26T23:34:40.241Z,18.23
2018-05-26T23:37:08.314Z,17.58
2018-05-26T23:39:36.085Z,18.20
2018-05-26T23:42:04.148Z,17.48
2018-05-26T23:44:32.225Z,18.33
2018-05-26T23:47:00.358Z,19.10
2018-05-26T23:49:28.574Z,19.10
2018-05-26T23:51:56.226Z,18.70
2018-05-26T23:54:24.401Z,18.60
2018-05-26T23:56:52.057Z,18.73
2018-05-26T23:59:20.141Z,17.73
